Flight Track Log - Related Links

Times and Time Zones

All times are in EDT time to prevent confusion due to time zone crossing. See the QXE2036 flight status page for this flight to view local times or setup timezone preferences in your user account.

Time Position Orientation Groundspeed Altitude Reporting Facility
EDT Latitude Longitude Course Direction KTS MPH feet Rate Location/Type
Sat 11:01:00 AM 44.4526 -122.8652 22° Northeast  Level FlightAware Approximate
Sat 11:02:00 AM 44.5183 -122.8288 22° Northeast  Level FlightAware Approximate
Sat 11:03:00 AM 44.5738 -122.7979 22° Northeast  Level FlightAware Approximate
Sat 11:04:00 AM 44.6289 -122.7660 23° Northeast  Level FlightAware Approximate
Sat 11:05:00 AM 44.6838 -122.7331 20° North  Level FlightAware Approximate
Sat 11:06:00 AM 44.7405 -122.7072 16° North  Level FlightAware Approximate
Sat 11:07:00 AM 44.7978 -122.6842 16° North  Level FlightAware Approximate
Sat 11:08:00 AM 44.8571 -122.6752 North  Level FlightAware Approximate
Sat 11:09:00 AM 44.9164 -122.6667 North  Level FlightAware Approximate
Sat 11:10:00 AM 44.9761 -122.6667 North  Level FlightAware Approximate
Sat 11:11:00 AM 45.0355 -122.6602 North  Level FlightAware Approximate
Sat 11:12:00 AM 45.0949 -122.6527 North  Level FlightAware Approximate
Sat 11:13:00 AM 45.1543 -122.6446 North  Level FlightAware Approximate
Sat 11:14:00 AM 45.2136 -122.6362 North  Level FlightAware Approximate
Sat 11:15:00 AM 45.2721 -122.6462 347° North  Level FlightAware Approximate
Sat 11:16:00 AM 45.3276 -122.6766 337° Northwest  Level FlightAware Approximate
Sat 11:17:00 AM 45.4117 -122.7257 338° Northwest  Level FlightAware Approximate
Sat 11:18:00 AM 45.4963 -122.7731 341° North  Level FlightAware Approximate
Sat 11:19:00 AM 45.5727 -122.8348 295° West  Level FlightAware Approximate
Sat 11:20:00 AM 45.6153 -122.9153 325° Northwest  Level FlightAware Approximate
Sat 11:21:00 AM 45.6015 -122.8211 115° Southeast  Level FlightAware Approximate
Sat 11:22:00 AM 45.6000 -122.7186 90° East  Level FlightAware Approximate
Sat 11:23:00 AM 45.5887 -122.5969 111° Southeast  Level Estimated
Sat 11:24:00 AM 45.5887 -122.5969 314° West  Level Estimated
Sat 11:25:00 AM 45.5887 -122.5969 314° West  Level Estimated
Sat 11:26:00 AM 45.5887 -122.5969 314° West  Level Estimated

Login

Don't have an account? Register now (free) for customized features, flight alerts, and more!